sensor_id;sensor_type;location;lat;lon;timestamp;temperature;humidity
78325;DHT22;67584;51.400;6.692;2023-06-22T00:00:49;22.10;63.50
78325;DHT22;67584;51.400;6.692;2023-06-22T00:03:15;22.10;63.80
78325;DHT22;67584;51.400;6.692;2023-06-22T00:05:41;22.10;63.90
78325;DHT22;67584;51.400;6.692;2023-06-22T00:08:06;22.10;63.90
78325;DHT22;67584;51.400;6.692;2023-06-22T00:10:32;22.00;64.00
78325;DHT22;67584;51.400;6.692;2023-06-22T00:12:58;22.00;64.20
78325;DHT22;67584;51.400;6.692;2023-06-22T00:15:24;21.90;64.40
78325;DHT22;67584;51.400;6.692;2023-06-22T00:17:50;21.90;64.70
78325;DHT22;67584;51.400;6.692;2023-06-22T00:20:16;21.90;64.80
78325;DHT22;67584;51.400;6.692;2023-06-22T00:22:44;21.90;64.70
78325;DHT22;67584;51.400;6.692;2023-06-22T00:25:09;21.80;64.70
78325;DHT22;67584;51.400;6.692;2023-06-22T00:27:36;21.90;64.80
78325;DHT22;67584;51.400;6.692;2023-06-22T00:30:02;21.80;65.00
78325;DHT22;67584;51.400;6.692;2023-06-22T00:32:28;21.80;65.30
78325;DHT22;67584;51.400;6.692;2023-06-22T00:34:54;21.80;65.20
78325;DHT22;67584;51.400;6.692;2023-06-22T00:37:20;21.80;65.20
78325;DHT22;67584;51.400;6.692;2023-06-22T00:39:52;21.80;65.20
78325;DHT22;67584;51.400;6.692;2023-06-22T00:42:19;21.70;65.30
78325;DHT22;67584;51.400;6.692;2023-06-22T00:44:46;21.70;65.50
78325;DHT22;67584;51.400;6.692;2023-06-22T00:47:13;21.60;65.40
78325;DHT22;67584;51.400;6.692;2023-06-22T00:49:41;21.60;65.60
78325;DHT22;67584;51.400;6.692;2023-06-22T00:52:08;21.50;65.90
78325;DHT22;67584;51.400;6.692;2023-06-22T00:54:40;21.50;66.10
78325;DHT22;67584;51.400;6.692;2023-06-22T00:57:06;21.40;66.30
78325;DHT22;67584;51.400;6.692;2023-06-22T00:59:37;21.40;66.40
78325;DHT22;67584;51.400;6.692;2023-06-22T01:02:03;21.30;66.70
78325;DHT22;67584;51.400;6.692;2023-06-22T01:04:35;21.20;67.30
78325;DHT22;67584;51.400;6.692;2023-06-22T01:07:13;21.20;67.20
78325;DHT22;67584;51.400;6.692;2023-06-22T01:10:14;21.20;67.80
78325;DHT22;67584;51.400;6.692;2023-06-22T01:16:00;20.90;67.80
78325;DHT22;67584;51.400;6.692;2023-06-22T01:18:30;20.90;68.10
78325;DHT22;67584;51.400;6.692;2023-06-22T01:20:56;20.80;68.40
78325;DHT22;67584;51.400;6.692;2023-06-22T01:26:19;20.80;69.60
78325;DHT22;67584;51.400;6.692;2023-06-22T01:28:54;20.70;70.00
78325;DHT22;67584;51.400;6.692;2023-06-22T01:31:24;20.60;69.10
78325;DHT22;67584;51.400;6.692;2023-06-22T01:33:54;20.60;69.20
78325;DHT22;67584;51.400;6.692;2023-06-22T01:36:22;20.60;69.50
78325;DHT22;67584;51.400;6.692;2023-06-22T01:38:49;20.60;69.70
78325;DHT22;67584;51.400;6.692;2023-06-22T01:41:16;20.70;69.70
78325;DHT22;67584;51.400;6.692;2023-06-22T01:43:42;20.60;69.90
78325;DHT22;67584;51.400;6.692;2023-06-22T01:46:10;20.70;69.80
78325;DHT22;67584;51.400;6.692;2023-06-22T01:48:38;20.70;70.00
78325;DHT22;67584;51.400;6.692;2023-06-22T01:51:04;20.70;70.20
78325;DHT22;67584;51.400;6.692;2023-06-22T01:53:31;20.70;70.20
78325;DHT22;67584;51.400;6.692;2023-06-22T01:55:57;20.60;69.90
78325;DHT22;67584;51.400;6.692;2023-06-22T01:58:26;20.70;70.10
78325;DHT22;67584;51.400;6.692;2023-06-22T02:03:41;20.80;70.50
78325;DHT22;67584;51.400;6.692;2023-06-22T02:06:20;20.70;70.70
78325;DHT22;67584;51.400;6.692;2023-06-22T02:08:57;20.50;71.30
78325;DHT22;67584;51.400;6.692;2023-06-22T02:11:25;20.60;71.00
78325;DHT22;67584;51.400;6.692;2023-06-22T02:13:52;20.70;71.20
78325;DHT22;67584;51.400;6.692;2023-06-22T02:16:19;20.70;70.80
78325;DHT22;67584;51.400;6.692;2023-06-22T02:18:48;20.70;70.90
78325;DHT22;67584;51.400;6.692;2023-06-22T02:21:21;20.60;71.00
78325;DHT22;67584;51.400;6.692;2023-06-22T02:23:47;20.70;71.10
78325;DHT22;67584;51.400;6.692;2023-06-22T02:26:13;20.60;71.10
78325;DHT22;67584;51.400;6.692;2023-06-22T02:28:39;20.50;71.30
78325;DHT22;67584;51.400;6.692;2023-06-22T02:31:04;20.50;71.60
78325;DHT22;67584;51.400;6.692;2023-06-22T02:33:30;20.40;71.90
78325;DHT22;67584;51.400;6.692;2023-06-22T02:35:56;20.40;72.30
78325;DHT22;67584;51.400;6.692;2023-06-22T02:38:21;20.40;72.50
78325;DHT22;67584;51.400;6.692;2023-06-22T02:40:51;20.50;72.20
78325;DHT22;67584;51.400;6.692;2023-06-22T02:43:16;20.30;72.30
78325;DHT22;67584;51.400;6.692;2023-06-22T02:45:43;20.40;72.60
78325;DHT22;67584;51.400;6.692;2023-06-22T02:48:10;20.40;72.50
78325;DHT22;67584;51.400;6.692;2023-06-22T02:50:36;20.40;72.40
78325;DHT22;67584;51.400;6.692;2023-06-22T02:53:03;20.40;72.40
78325;DHT22;67584;51.400;6.692;2023-06-22T02:55:33;20.50;72.30
78325;DHT22;67584;51.400;6.692;2023-06-22T02:57:58;20.40;72.30
78325;DHT22;67584;51.400;6.692;2023-06-22T03:00:26;20.40;72.50
78325;DHT22;67584;51.400;6.692;2023-06-22T03:02:56;20.30;72.60
78325;DHT22;67584;51.400;6.692;2023-06-22T03:05:23;20.30;72.90
78325;DHT22;67584;51.400;6.692;2023-06-22T03:07:49;20.20;73.00
78325;DHT22;67584;51.400;6.692;2023-06-22T03:10:16;20.20;73.20
78325;DHT22;67584;51.400;6.692;2023-06-22T03:12:42;20.10;73.40
78325;DHT22;67584;51.400;6.692;2023-06-22T03:15:10;20.10;73.50
78325;DHT22;67584;51.400;6.692;2023-06-22T03:17:37;20.10;74.80
78325;DHT22;67584;51.400;6.692;2023-06-22T03:20:08;20.00;73.40
78325;DHT22;67584;51.400;6.692;2023-06-22T03:22:35;20.10;73.60
78325;DHT22;67584;51.400;6.692;2023-06-22T03:25:01;20.10;73.70
78325;DHT22;67584;51.400;6.692;2023-06-22T03:27:27;20.10;73.90
78325;DHT22;67584;51.400;6.692;2023-06-22T03:29:53;20.00;74.00
78325;DHT22;67584;51.400;6.692;2023-06-22T03:32:19;20.10;74.10
78325;DHT22;67584;51.400;6.692;2023-06-22T03:34:44;20.10;74.10
78325;DHT22;67584;51.400;6.692;2023-06-22T03:37:14;20.10;74.00
78325;DHT22;67584;51.400;6.692;2023-06-22T03:39:41;20.10;73.90
78325;DHT22;67584;51.400;6.692;2023-06-22T03:42:07;20.10;74.10
78325;DHT22;67584;51.400;6.692;2023-06-22T03:44:34;20.20;74.00
78325;DHT22;67584;51.400;6.692;2023-06-22T03:47:02;20.20;74.00
78325;DHT22;67584;51.400;6.692;2023-06-22T03:49:28;20.40;73.80
78325;DHT22;67584;51.400;6.692;2023-06-22T03:51:54;20.40;73.60
78325;DHT22;67584;51.400;6.692;2023-06-22T03:54:19;20.50;73.70
78325;DHT22;67584;51.400;6.692;2023-06-22T03:56:45;20.50;73.60
78325;DHT22;67584;51.400;6.692;2023-06-22T03:59:11;20.70;73.30
78325;DHT22;67584;51.400;6.692;2023-06-22T04:01:36;20.80;73.10
78325;DHT22;67584;51.400;6.692;2023-06-22T04:04:02;20.90;73.00
78325;DHT22;67584;51.400;6.692;2023-06-22T04:06:28;20.90;72.90
78325;DHT22;67584;51.400;6.692;2023-06-22T04:08:53;21.10;72.80
78325;DHT22;67584;51.400;6.692;2023-06-22T04:11:19;21.20;72.60
78325;DHT22;67584;51.400;6.692;2023-06-22T04:13:44;21.20;72.40
78325;DHT22;67584;51.400;6.692;2023-06-22T04:16:10;21.30;72.30
78325;DHT22;67584;51.400;6.692;2023-06-22T04:18:36;21.40;72.10
78325;DHT22;67584;51.400;6.692;2023-06-22T04:21:02;21.40;72.00
78325;DHT22;67584;51.400;6.692;2023-06-22T04:23:28;21.50;71.70
78325;DHT22;67584;51.400;6.692;2023-06-22T04:25:53;21.50;71.70
78325;DHT22;67584;51.400;6.692;2023-06-22T04:28:19;21.50;71.70
78325;DHT22;67584;51.400;6.692;2023-06-22T04:30:44;21.60;71.50
78325;DHT22;67584;51.400;6.692;2023-06-22T04:33:14;21.50;71.90
78325;DHT22;67584;51.400;6.692;2023-06-22T04:35:40;21.50;71.80
78325;DHT22;67584;51.400;6.692;2023-06-22T04:38:07;21.40;72.10
78325;DHT22;67584;51.400;6.692;2023-06-22T04:40:33;21.50;71.80
78325;DHT22;67584;51.400;6.692;2023-06-22T04:42:59;22.00;70.70
78325;DHT22;67584;51.400;6.692;2023-06-22T04:45:28;22.30;69.50
78325;DHT22;67584;51.400;6.692;2023-06-22T04:47:56;22.50;68.90
78325;DHT22;67584;51.400;6.692;2023-06-22T04:50:22;22.70;68.60
78325;DHT22;67584;51.400;6.692;2023-06-22T04:52:49;22.80;68.00
78325;DHT22;67584;51.400;6.692;2023-06-22T04:55:15;22.70;67.90
78325;DHT22;67584;51.400;6.692;2023-06-22T04:57:45;22.70;67.90
78325;DHT22;67584;51.400;6.692;2023-06-22T05:00:18;22.80;67.70
78325;DHT22;67584;51.400;6.692;2023-06-22T05:02:46;22.80;67.70
78325;DHT22;67584;51.400;6.692;2023-06-22T05:05:12;22.90;67.30
78325;DHT22;67584;51.400;6.692;2023-06-22T05:07:49;22.90;67.30
78325;DHT22;67584;51.400;6.692;2023-06-22T05:10:16;23.00;67.00
78325;DHT22;67584;51.400;6.692;2023-06-22T05:12:42;23.20;66.30
78325;DHT22;67584;51.400;6.692;2023-06-22T05:15:08;23.10;66.50
78325;DHT22;67584;51.400;6.692;2023-06-22T05:17:35;23.00;66.40
78325;DHT22;67584;51.400;6.692;2023-06-22T05:20:01;23.10;66.40
78325;DHT22;67584;51.400;6.692;2023-06-22T05:22:28;23.10;66.20
78325;DHT22;67584;51.400;6.692;2023-06-22T05:24:53;23.00;66.50
78325;DHT22;67584;51.400;6.692;2023-06-22T05:27:19;22.90;66.60
78325;DHT22;67584;51.400;6.692;2023-06-22T05:29:45;23.00;67.00
78325;DHT22;67584;51.400;6.692;2023-06-22T05:32:11;22.80;67.20
78325;DHT22;67584;51.400;6.692;2023-06-22T05:34:37;22.90;67.10
78325;DHT22;67584;51.400;6.692;2023-06-22T05:37:03;22.90;67.20
78325;DHT22;67584;51.400;6.692;2023-06-22T05:39:28;23.00;67.30
78325;DHT22;67584;51.400;6.692;2023-06-22T05:41:54;22.90;67.30
78325;DHT22;67584;51.400;6.692;2023-06-22T05:44:20;22.90;67.80
78325;DHT22;67584;51.400;6.692;2023-06-22T05:46:46;22.70;68.40
78325;DHT22;67584;51.400;6.692;2023-06-22T05:49:13;22.80;67.90
78325;DHT22;67584;51.400;6.692;2023-06-22T05:51:39;22.80;68.40
78325;DHT22;67584;51.400;6.692;2023-06-22T05:54:05;22.80;68.20
78325;DHT22;67584;51.400;6.692;2023-06-22T05:56:31;22.80;68.10
78325;DHT22;67584;51.400;6.692;2023-06-22T05:58:56;23.00;67.20
78325;DHT22;67584;51.400;6.692;2023-06-22T06:01:22;23.10;67.00
78325;DHT22;67584;51.400;6.692;2023-06-22T06:03:48;23.20;66.90
78325;DHT22;67584;51.400;6.692;2023-06-22T06:06:15;23.10;67.00
78325;DHT22;67584;51.400;6.692;2023-06-22T06:08:41;23.10;66.60
78325;DHT22;67584;51.400;6.692;2023-06-22T06:11:07;23.30;66.20
78325;DHT22;67584;51.400;6.692;2023-06-22T06:13:33;23.30;65.80
78325;DHT22;67584;51.400;6.692;2023-06-22T06:15:59;23.40;65.60
78325;DHT22;67584;51.400;6.692;2023-06-22T06:18:25;23.40;65.30
78325;DHT22;67584;51.400;6.692;2023-06-22T06:20:50;23.60;64.70
78325;DHT22;67584;51.400;6.692;2023-06-22T06:23:16;23.70;64.40
78325;DHT22;67584;51.400;6.692;2023-06-22T06:25:42;23.60;64.40
78325;DHT22;67584;51.400;6.692;2023-06-22T06:28:08;23.50;64.30
78325;DHT22;67584;51.400;6.692;2023-06-22T06:30:33;23.50;64.40
78325;DHT22;67584;51.400;6.692;2023-06-22T06:33:00;23.50;64.50
78325;DHT22;67584;51.400;6.692;2023-06-22T06:35:26;23.40;64.60
78325;DHT22;67584;51.400;6.692;2023-06-22T06:37:51;23.30;64.80
78325;DHT22;67584;51.400;6.692;2023-06-22T06:40:18;23.40;64.40
78325;DHT22;67584;51.400;6.692;2023-06-22T06:42:46;23.40;64.30
78325;DHT22;67584;51.400;6.692;2023-06-22T06:45:14;23.40;64.30
78325;DHT22;67584;51.400;6.692;2023-06-22T06:47:41;23.60;63.90
78325;DHT22;67584;51.400;6.692;2023-06-22T06:50:08;23.70;63.70
78325;DHT22;67584;51.400;6.692;2023-06-22T06:52:34;23.80;63.40
78325;DHT22;67584;51.400;6.692;2023-06-22T06:54:59;24.00;63.00
78325;DHT22;67584;51.400;6.692;2023-06-22T06:57:26;23.90;62.90
78325;DHT22;67584;51.400;6.692;2023-06-22T06:59:56;24.10;62.50
78325;DHT22;67584;51.400;6.692;2023-06-22T07:02:22;24.10;62.10
78325;DHT22;67584;51.400;6.692;2023-06-22T07:04:48;24.20;61.80
78325;DHT22;67584;51.400;6.692;2023-06-22T07:07:14;24.20;61.80
78325;DHT22;67584;51.400;6.692;2023-06-22T07:09:40;24.20;61.80
78325;DHT22;67584;51.400;6.692;2023-06-22T07:12:06;24.30;61.20
78325;DHT22;67584;51.400;6.692;2023-06-22T07:14:32;24.40;61.10
78325;DHT22;67584;51.400;6.692;2023-06-22T07:16:58;24.40;61.20
78325;DHT22;67584;51.400;6.692;2023-06-22T07:19:25;24.40;61.10
78325;DHT22;67584;51.400;6.692;2023-06-22T07:21:52;24.50;60.70
78325;DHT22;67584;51.400;6.692;2023-06-22T07:24:19;24.80;60.10
78325;DHT22;67584;51.400;6.692;2023-06-22T07:26:49;24.90;59.70
78325;DHT22;67584;51.400;6.692;2023-06-22T07:29:17;25.20;59.00
78325;DHT22;67584;51.400;6.692;2023-06-22T07:31:43;25.40;58.20
78325;DHT22;67584;51.400;6.692;2023-06-22T07:34:08;25.50;57.50
78325;DHT22;67584;51.400;6.692;2023-06-22T07:36:34;25.30;57.90
78325;DHT22;67584;51.400;6.692;2023-06-22T07:39:02;25.10;58.60
78325;DHT22;67584;51.400;6.692;2023-06-22T07:41:28;24.80;59.70
78325;DHT22;67584;51.400;6.692;2023-06-22T07:43:54;24.40;60.90
78325;DHT22;67584;51.400;6.692;2023-06-22T07:46:20;24.10;62.00
78325;DHT22;67584;51.400;6.692;2023-06-22T07:48:45;24.00;62.50
78325;DHT22;67584;51.400;6.692;2023-06-22T07:51:11;23.90;63.30
78325;DHT22;67584;51.400;6.692;2023-06-22T07:53:41;23.80;63.90
78325;DHT22;67584;51.400;6.692;2023-06-22T07:56:07;23.60;64.50
78325;DHT22;67584;51.400;6.692;2023-06-22T07:58:35;23.50;65.00
78325;DHT22;67584;51.400;6.692;2023-06-22T08:01:01;23.30;65.50
78325;DHT22;67584;51.400;6.692;2023-06-22T08:03:26;23.20;66.00
78325;DHT22;67584;51.400;6.692;2023-06-22T08:05:52;23.30;66.00
78325;DHT22;67584;51.400;6.692;2023-06-22T08:08:18;23.50;65.70
78325;DHT22;67584;51.400;6.692;2023-06-22T08:10:43;23.50;66.00
78325;DHT22;67584;51.400;6.692;2023-06-22T08:13:10;23.90;65.80
78325;DHT22;67584;51.400;6.692;2023-06-22T08:15:36;24.00;65.20
78325;DHT22;67584;51.400;6.692;2023-06-22T08:18:01;24.40;64.30
78325;DHT22;67584;51.400;6.692;2023-06-22T08:20:27;24.70;63.20
78325;DHT22;67584;51.400;6.692;2023-06-22T08:22:55;25.10;61.90
78325;DHT22;67584;51.400;6.692;2023-06-22T08:25:20;25.50;61.20
78325;DHT22;67584;51.400;6.692;2023-06-22T08:27:47;25.70;60.40
78325;DHT22;67584;51.400;6.692;2023-06-22T08:30:14;25.80;60.10
78325;DHT22;67584;51.400;6.692;2023-06-22T08:32:42;25.70;60.10
78325;DHT22;67584;51.400;6.692;2023-06-22T08:35:08;25.50;60.50
78325;DHT22;67584;51.400;6.692;2023-06-22T08:37:34;25.20;61.70
78325;DHT22;67584;51.400;6.692;2023-06-22T08:40:04;25.00;62.20
78325;DHT22;67584;51.400;6.692;2023-06-22T08:42:40;24.90;62.90
78325;DHT22;67584;51.400;6.692;2023-06-22T08:45:06;24.90;63.10
78325;DHT22;67584;51.400;6.692;2023-06-22T08:47:32;25.00;62.80
78325;DHT22;67584;51.400;6.692;2023-06-22T08:49:58;25.00;62.80
78325;DHT22;67584;51.400;6.692;2023-06-22T08:52:24;25.20;62.60
78325;DHT22;67584;51.400;6.692;2023-06-22T08:54:49;25.50;61.70
78325;DHT22;67584;51.400;6.692;2023-06-22T08:57:16;25.40;61.90
78325;DHT22;67584;51.400;6.692;2023-06-22T08:59:42;25.50;61.70
78325;DHT22;67584;51.400;6.692;2023-06-22T09:02:08;25.70;61.10
78325;DHT22;67584;51.400;6.692;2023-06-22T09:04:33;26.10;60.10
78325;DHT22;67584;51.400;6.692;2023-06-22T09:07:03;26.40;59.30
78325;DHT22;67584;51.400;6.692;2023-06-22T09:09:29;26.90;58.30
78325;DHT22;67584;51.400;6.692;2023-06-22T09:11:55;27.30;57.30
78325;DHT22;67584;51.400;6.692;2023-06-22T09:14:20;27.70;56.00
78325;DHT22;67584;51.400;6.692;2023-06-22T09:16:46;27.90;55.90
78325;DHT22;67584;51.400;6.692;2023-06-22T09:19:12;28.50;54.50
78325;DHT22;67584;51.400;6.692;2023-06-22T09:21:38;28.90;53.40
78325;DHT22;67584;51.400;6.692;2023-06-22T09:24:04;28.90;52.80
78325;DHT22;67584;51.400;6.692;2023-06-22T09:26:29;29.20;52.70
78325;DHT22;67584;51.400;6.692;2023-06-22T09:28:55;29.60;51.20
78325;DHT22;67584;51.400;6.692;2023-06-22T09:31:21;29.90;50.90
78325;DHT22;67584;51.400;6.692;2023-06-22T09:33:55;30.70;49.40
78325;DHT22;67584;51.400;6.692;2023-06-22T09:36:21;30.70;49.30
78325;DHT22;67584;51.400;6.692;2023-06-22T09:38:48;30.70;49.10
78325;DHT22;67584;51.400;6.692;2023-06-22T09:41:14;30.20;49.90
78325;DHT22;67584;51.400;6.692;2023-06-22T09:43:39;30.10;50.00
78325;DHT22;67584;51.400;6.692;2023-06-22T09:46:05;29.90;50.20
78325;DHT22;67584;51.400;6.692;2023-06-22T09:48:32;30.00;50.30
78325;DHT22;67584;51.400;6.692;2023-06-22T09:50:58;30.20;50.00
78325;DHT22;67584;51.400;6.692;2023-06-22T09:53:23;30.30;49.70
78325;DHT22;67584;51.400;6.692;2023-06-22T09:55:49;30.70;49.00
78325;DHT22;67584;51.400;6.692;2023-06-22T09:58:15;30.50;49.30
78325;DHT22;67584;51.400;6.692;2023-06-22T10:00:40;30.70;49.10
78325;DHT22;67584;51.400;6.692;2023-06-22T10:03:07;30.80;49.00
78325;DHT22;67584;51.400;6.692;2023-06-22T10:05:33;30.80;48.80
78325;DHT22;67584;51.400;6.692;2023-06-22T10:07:58;30.90;48.70
78325;DHT22;67584;51.400;6.692;2023-06-22T10:10:24;30.90;48.30
78325;DHT22;67584;51.400;6.692;2023-06-22T10:12:57;31.00;47.30
78325;DHT22;67584;51.400;6.692;2023-06-22T10:15:27;31.30;47.50
78325;DHT22;67584;51.400;6.692;2023-06-22T10:17:53;31.60;46.70
78325;DHT22;67584;51.400;6.692;2023-06-22T10:20:19;31.80;46.60
78325;DHT22;67584;51.400;6.692;2023-06-22T10:22:46;32.20;45.80
78325;DHT22;67584;51.400;6.692;2023-06-22T10:25:12;32.70;45.20
78325;DHT22;67584;51.400;6.692;2023-06-22T10:27:39;32.30;45.60
78325;DHT22;67584;51.400;6.692;2023-06-22T10:30:08;31.50;46.70
78325;DHT22;67584;51.400;6.692;2023-06-22T10:32:34;30.90;48.30
78325;DHT22;67584;51.400;6.692;2023-06-22T10:35:00;30.50;49.00
78325;DHT22;67584;51.400;6.692;2023-06-22T10:37:26;30.50;49.20
78325;DHT22;67584;51.400;6.692;2023-06-22T10:39:51;30.20;49.90
78325;DHT22;67584;51.400;6.692;2023-06-22T10:42:17;29.80;50.50
78325;DHT22;67584;51.400;6.692;2023-06-22T10:44:43;29.40;51.30
78325;DHT22;67584;51.400;6.692;2023-06-22T10:47:10;28.80;52.50
78325;DHT22;67584;51.400;6.692;2023-06-22T10:49:38;28.20;53.70
78325;DHT22;67584;51.400;6.692;2023-06-22T10:52:04;28.00;54.40
78325;DHT22;67584;51.400;6.692;2023-06-22T10:54:32;27.70;55.00
78325;DHT22;67584;51.400;6.692;2023-06-22T10:56:59;27.40;55.80
78325;DHT22;67584;51.400;6.692;2023-06-22T10:59:25;27.10;56.80
78325;DHT22;67584;51.400;6.692;2023-06-22T11:01:52;26.90;57.60
78325;DHT22;67584;51.400;6.692;2023-06-22T11:04:18;26.60;57.90
78325;DHT22;67584;51.400;6.692;2023-06-22T11:06:43;26.60;58.10
78325;DHT22;67584;51.400;6.692;2023-06-22T11:09:09;26.70;58.50
78325;DHT22;67584;51.400;6.692;2023-06-22T11:11:35;26.60;59.10
78325;DHT22;67584;51.400;6.692;2023-06-22T11:14:00;26.60;59.30
78325;DHT22;67584;51.400;6.692;2023-06-22T11:16:26;26.60;59.80
78325;DHT22;67584;51.400;6.692;2023-06-22T11:18:52;26.50;60.30
78325;DHT22;67584;51.400;6.692;2023-06-22T11:21:18;26.50;61.20
78325;DHT22;67584;51.400;6.692;2023-06-22T11:23:43;26.40;62.30
78325;DHT22;67584;51.400;6.692;2023-06-22T11:26:09;26.00;64.20
78325;DHT22;67584;51.400;6.692;2023-06-22T11:28:34;25.40;66.50
78325;DHT22;67584;51.400;6.692;2023-06-22T11:31:00;24.50;71.60
78325;DHT22;67584;51.400;6.692;2023-06-22T11:33:26;23.10;77.70
78325;DHT22;67584;51.400;6.692;2023-06-22T11:35:51;22.20;80.70
78325;DHT22;67584;51.400;6.692;2023-06-22T11:38:17;22.00;82.50
78325;DHT22;67584;51.400;6.692;2023-06-22T11:40:43;21.80;84.20
78325;DHT22;67584;51.400;6.692;2023-06-22T11:43:08;21.90;84.50
78325;DHT22;67584;51.400;6.692;2023-06-22T11:45:34;21.90;85.30
78325;DHT22;67584;51.400;6.692;2023-06-22T11:47:59;21.80;87.50
78325;DHT22;67584;51.400;6.692;2023-06-22T11:50:25;21.70;85.70
78325;DHT22;67584;51.400;6.692;2023-06-22T11:52:51;21.90;87.50
78325;DHT22;67584;51.400;6.692;2023-06-22T11:55:18;21.80;87.60
78325;DHT22;67584;51.400;6.692;2023-06-22T11:57:57;21.80;88.40
78325;DHT22;67584;51.400;6.692;2023-06-22T12:00:25;21.90;88.50
78325;DHT22;67584;51.400;6.692;2023-06-22T12:02:51;21.90;87.60
78325;DHT22;67584;51.400;6.692;2023-06-22T12:05:21;21.90;87.70
78325;DHT22;67584;51.400;6.692;2023-06-22T12:07:48;22.10;87.60
78325;DHT22;67584;51.400;6.692;2023-06-22T12:10:14;22.20;87.10
78325;DHT22;67584;51.400;6.692;2023-06-22T12:12:40;22.30;86.90
78325;DHT22;67584;51.400;6.692;2023-06-22T12:15:06;22.30;87.00
78325;DHT22;67584;51.400;6.692;2023-06-22T12:17:34;22.70;86.60
78325;DHT22;67584;51.400;6.692;2023-06-22T12:20:00;23.30;86.80
78325;DHT22;67584;51.400;6.692;2023-06-22T12:22:27;24.00;85.10
78325;DHT22;67584;51.400;6.692;2023-06-22T12:24:52;24.60;84.10
78325;DHT22;67584;51.400;6.692;2023-06-22T12:27:18;25.20;82.60
78325;DHT22;67584;51.400;6.692;2023-06-22T12:29:45;25.70;81.10
78325;DHT22;67584;51.400;6.692;2023-06-22T12:32:11;26.00;79.80
78325;DHT22;67584;51.400;6.692;2023-06-22T12:34:39;25.90;79.30
78325;DHT22;67584;51.400;6.692;2023-06-22T12:37:05;25.80;79.40
78325;DHT22;67584;51.400;6.692;2023-06-22T12:39:32;25.90;79.00
78325;DHT22;67584;51.400;6.692;2023-06-22T12:41:58;26.00;78.60
78325;DHT22;67584;51.400;6.692;2023-06-22T12:44:23;26.10;78.10
78325;DHT22;67584;51.400;6.692;2023-06-22T12:46:49;26.20;77.70
78325;DHT22;67584;51.400;6.692;2023-06-22T12:49:15;26.20;77.40
78325;DHT22;67584;51.400;6.692;2023-06-22T12:51:42;26.10;77.40
78325;DHT22;67584;51.400;6.692;2023-06-22T12:54:08;26.20;77.30
78325;DHT22;67584;51.400;6.692;2023-06-22T12:56:34;25.80;77.40
78325;DHT22;67584;51.400;6.692;2023-06-22T12:59:00;25.70;78.10
78325;DHT22;67584;51.400;6.692;2023-06-22T13:01:28;25.50;78.60
78325;DHT22;67584;51.400;6.692;2023-06-22T13:03:56;25.30;78.70
78325;DHT22;67584;51.400;6.692;2023-06-22T13:06:21;25.20;78.80
78325;DHT22;67584;51.400;6.692;2023-06-22T13:08:47;24.90;79.20
78325;DHT22;67584;51.400;6.692;2023-06-22T13:11:13;24.60;79.70
78325;DHT22;67584;51.400;6.692;2023-06-22T13:13:39;24.50;80.30
78325;DHT22;67584;51.400;6.692;2023-06-22T13:16:05;24.50;80.50
78325;DHT22;67584;51.400;6.692;2023-06-22T13:18:31;24.50;80.70
78325;DHT22;67584;51.400;6.692;2023-06-22T13:20:57;24.20;81.30
78325;DHT22;67584;51.400;6.692;2023-06-22T13:23:23;24.10;81.80
78325;DHT22;67584;51.400;6.692;2023-06-22T13:25:49;24.00;82.10
78325;DHT22;67584;51.400;6.692;2023-06-22T13:28:15;24.00;82.20
78325;DHT22;67584;51.400;6.692;2023-06-22T13:30:42;24.10;81.90
78325;DHT22;67584;51.400;6.692;2023-06-22T13:33:08;24.20;82.00
78325;DHT22;67584;51.400;6.692;2023-06-22T13:35:34;24.30;81.40
78325;DHT22;67584;51.400;6.692;2023-06-22T13:38:01;24.70;81.10
78325;DHT22;67584;51.400;6.692;2023-06-22T13:40:26;25.00;80.40
78325;DHT22;67584;51.400;6.692;2023-06-22T13:42:52;25.40;80.00
78325;DHT22;67584;51.400;6.692;2023-06-22T13:45:18;25.80;78.90
78325;DHT22;67584;51.400;6.692;2023-06-22T13:47:45;26.20;78.30
78325;DHT22;67584;51.400;6.692;2023-06-22T13:50:11;26.40;78.20
78325;DHT22;67584;51.400;6.692;2023-06-22T13:52:38;26.50;77.70
78325;DHT22;67584;51.400;6.692;2023-06-22T13:55:04;26.60;77.10
78325;DHT22;67584;51.400;6.692;2023-06-22T13:57:31;26.40;77.20
78325;DHT22;67584;51.400;6.692;2023-06-22T13:59:56;26.60;76.90
78325;DHT22;67584;51.400;6.692;2023-06-22T14:02:22;27.20;75.90
78325;DHT22;67584;51.400;6.692;2023-06-22T14:04:48;27.10;76.00
78325;DHT22;67584;51.400;6.692;2023-06-22T14:07:13;26.80;75.90
78325;DHT22;67584;51.400;6.692;2023-06-22T14:09:39;26.40;76.30
78325;DHT22;67584;51.400;6.692;2023-06-22T14:12:08;26.30;76.40
78325;DHT22;67584;51.400;6.692;2023-06-22T14:14:34;26.30;76.40
78325;DHT22;67584;51.400;6.692;2023-06-22T14:17:00;26.10;76.70
78325;DHT22;67584;51.400;6.692;2023-06-22T14:19:26;25.90;77.10
78325;DHT22;67584;51.400;6.692;2023-06-22T14:21:52;25.70;77.60
78325;DHT22;67584;51.400;6.692;2023-06-22T14:24:17;25.50;77.80
78325;DHT22;67584;51.400;6.692;2023-06-22T14:26:43;25.20;78.30
78325;DHT22;67584;51.400;6.692;2023-06-22T14:29:09;25.00;78.70
78325;DHT22;67584;51.400;6.692;2023-06-22T14:31:34;24.80;79.30
78325;DHT22;67584;51.400;6.692;2023-06-22T14:34:01;24.80;79.30
78325;DHT22;67584;51.400;6.692;2023-06-22T14:36:28;24.70;79.20
78325;DHT22;67584;51.400;6.692;2023-06-22T14:38:54;24.50;79.30
78325;DHT22;67584;51.400;6.692;2023-06-22T14:41:20;24.40;79.80
78325;DHT22;67584;51.400;6.692;2023-06-22T14:43:47;24.40;80.30
78325;DHT22;67584;51.400;6.692;2023-06-22T14:46:15;24.00;80.60
78325;DHT22;67584;51.400;6.692;2023-06-22T14:48:41;23.80;81.30
78325;DHT22;67584;51.400;6.692;2023-06-22T14:51:08;23.60;81.70
78325;DHT22;67584;51.400;6.692;2023-06-22T14:53:35;23.60;81.70
78325;DHT22;67584;51.400;6.692;2023-06-22T14:56:01;23.60;81.20
78325;DHT22;67584;51.400;6.692;2023-06-22T14:58:33;23.70;81.50
78325;DHT22;67584;51.400;6.692;2023-06-22T15:01:00;23.60;81.10
78325;DHT22;67584;51.400;6.692;2023-06-22T15:03:25;23.70;81.30
78325;DHT22;67584;51.400;6.692;2023-06-22T15:05:54;23.70;80.00
78325;DHT22;67584;51.400;6.692;2023-06-22T15:08:20;23.80;81.60
78325;DHT22;67584;51.400;6.692;2023-06-22T15:10:46;23.90;81.60
78325;DHT22;67584;51.400;6.692;2023-06-22T15:13:12;24.00;81.70
78325;DHT22;67584;51.400;6.692;2023-06-22T15:15:38;24.00;81.70
78325;DHT22;67584;51.400;6.692;2023-06-22T15:18:04;23.90;81.90
78325;DHT22;67584;51.400;6.692;2023-06-22T15:20:30;23.70;81.90
78325;DHT22;67584;51.400;6.692;2023-06-22T15:22:57;23.50;81.80
78325;DHT22;67584;51.400;6.692;2023-06-22T15:25:23;23.30;82.20
78325;DHT22;67584;51.400;6.692;2023-06-22T15:27:48;23.20;82.00
78325;DHT22;67584;51.400;6.692;2023-06-22T15:30:14;23.10;82.30
78325;DHT22;67584;51.400;6.692;2023-06-22T15:32:44;23.00;82.90
78325;DHT22;67584;51.400;6.692;2023-06-22T15:35:10;22.90;83.10